Time,TemperatureF,DewpointF,PressureIn,WindDirection,WindDirectionDegrees,WindSpeedMPH,WindSpeedGustMPH,Humidity,HourlyPrecipIn,Conditions,Clouds,dailyrainin,SolarRadiationWatts/m^2,SoftwareType,DateUTC
2013-06-28 00:01:00,62.0,59.0,-100.00,ESE,105,1.0,8.0,90,0.00,,,0.00,0.000000,,2013-06-28 05:01:00,
2013-06-28 00:33:00,60.0,59.0,-100.00,SW,229,3.0,4.0,95,0.00,,,0.00,0.000000,,2013-06-28 05:33:00,
2013-06-28 00:43:00,60.0,59.0,-100.00,SW,229,3.0,4.0,95,0.00,,,0.00,0.000000,,2013-06-28 05:43:00,
2013-06-28 00:53:00,60.0,59.0,-100.00,SW,229,3.0,4.0,95,0.00,,,0.00,0.000000,,2013-06-28 05:53:00,
2013-06-28 01:02:00,60.0,59.0,-100.00,SW,229,3.0,4.0,95,0.00,,,0.00,0.000000,,2013-06-28 06:02:00,
2013-06-28 01:34:00,61.0,59.0,-100.00,SW,236,4.0,8.0,93,0.00,,,-99.99,0.000000,,2013-06-28 06:34:00,
2013-06-28 01:43:00,61.0,59.0,-100.00,SW,236,4.0,8.0,93,0.00,,,-99.99,0.000000,,2013-06-28 06:43:00,
2013-06-28 01:52:00,61.0,59.0,-100.00,SW,236,4.0,8.0,93,0.00,,,-99.99,0.000000,,2013-06-28 06:52:00,
2013-06-28 02:01:00,61.0,59.0,-100.00,SW,236,4.0,8.0,93,0.00,,,-99.99,0.000000,,2013-06-28 07:01:00,
2013-06-28 02:33:00,62.0,57.0,-100.00,SW,226,2.0,7.0,83,0.00,,,0.00,0.000000,,2013-06-28 07:33:00,
2013-06-28 02:43:00,62.0,57.0,-100.00,SW,226,2.0,7.0,83,0.00,,,0.00,0.000000,,2013-06-28 07:43:00,
2013-06-28 02:52:00,62.0,57.0,-100.00,SW,226,2.0,7.0,83,0.00,,,0.00,0.000000,,2013-06-28 07:52:00,
2013-06-28 03:01:00,62.0,57.0,-100.00,SW,226,2.0,7.0,83,0.00,,,0.00,0.000000,,2013-06-28 08:01:00,
2013-06-28 03:33:00,62.0,58.0,-100.00,WSW,239,4.0,7.0,88,0.00,,,0.00,0.000000,,2013-06-28 08:33:00,
2013-06-28 03:43:00,62.0,58.0,-100.00,WSW,239,4.0,7.0,88,0.00,,,0.00,0.000000,,2013-06-28 08:43:00,
2013-06-28 03:52:00,62.0,58.0,-100.00,WSW,239,4.0,7.0,88,0.00,,,0.00,0.000000,,2013-06-28 08:52:00,
2013-06-28 04:02:00,62.0,58.0,-100.00,WSW,239,4.0,7.0,88,0.00,,,0.00,0.000000,,2013-06-28 09:02:00,
2013-06-28 04:33:00,61.0,57.0,-100.00,WSW,241,4.0,6.0,88,0.00,,,0.00,0.000000,,2013-06-28 09:33:00,
2013-06-28 04:42:00,61.0,57.0,-100.00,WSW,241,4.0,6.0,88,0.00,,,0.00,0.000000,,2013-06-28 09:42:00,
2013-06-28 04:52:00,61.0,57.0,-100.00,WSW,241,4.0,6.0,88,0.00,,,0.00,0.000000,,2013-06-28 09:52:00,
2013-06-28 05:02:00,61.0,57.0,-100.00,WSW,241,4.0,6.0,88,0.00,,,0.00,0.000000,,2013-06-28 10:02:00,
2013-06-28 05:33:00,63.0,58.0,-100.00,WSW,258,5.0,9.0,85,0.00,,,0.00,0.000000,,2013-06-28 10:33:00,
2013-06-28 05:42:00,63.0,58.0,-100.00,WSW,258,5.0,9.0,85,0.00,,,0.00,0.000000,,2013-06-28 10:42:00,
2013-06-28 05:52:00,63.0,58.0,-100.00,WSW,258,5.0,9.0,85,0.00,,,0.00,0.000000,,2013-06-28 10:52:00,
2013-06-28 06:02:00,63.0,58.0,-100.00,WSW,258,5.0,9.0,85,0.00,,,0.00,0.000000,,2013-06-28 11:02:00,
2013-06-28 06:34:00,63.0,58.0,-100.00,WNW,282,4.0,9.0,83,0.00,,,0.00,7.000000,,2013-06-28 11:34:00,
2013-06-28 06:43:00,63.0,58.0,-100.00,WNW,282,4.0,9.0,83,0.00,,,0.00,7.000000,,2013-06-28 11:43:00,
2013-06-28 06:53:00,63.0,58.0,-100.00,WNW,282,4.0,9.0,83,0.00,,,0.00,7.000000,,2013-06-28 11:53:00,
2013-06-28 07:02:00,63.0,58.0,-100.00,WNW,282,4.0,9.0,83,0.00,,,0.00,7.000000,,2013-06-28 12:02:00,
2013-06-28 07:34:00,65.0,59.0,-100.00,West,265,5.0,9.0,82,0.00,,,0.00,39.000000,,2013-06-28 12:34:00,
2013-06-28 07:43:00,65.0,59.0,-100.00,West,265,5.0,9.0,82,0.00,,,0.00,39.000000,,2013-06-28 12:43:00,
2013-06-28 07:52:00,65.0,59.0,-100.00,West,265,5.0,9.0,82,0.00,,,0.00,39.000000,,2013-06-28 12:52:00,
2013-06-28 08:01:00,65.0,59.0,-100.00,West,265,5.0,9.0,82,0.00,,,0.00,39.000000,,2013-06-28 13:01:00,
2013-06-28 08:33:00,66.0,60.0,-100.00,WNW,295,6.0,10.0,81,0.00,,,0.00,56.000000,,2013-06-28 13:33:00,
2013-06-28 08:43:00,66.0,60.0,-100.00,WNW,295,6.0,10.0,81,0.00,,,0.00,56.000000,,2013-06-28 13:43:00,
2013-06-28 08:53:00,66.0,60.0,-100.00,WNW,295,6.0,10.0,81,0.00,,,0.00,56.000000,,2013-06-28 13:53:00,
2013-06-28 09:02:00,66.0,60.0,-100.00,WNW,295,6.0,10.0,81,0.00,,,0.00,56.000000,,2013-06-28 14:02:00,
2013-06-28 09:33:00,69.0,61.0,-100.00,NW,313,8.0,14.0,77,0.00,,,0.00,151.000000,,2013-06-28 14:33:00,
2013-06-28 09:44:00,69.0,61.0,-100.00,NW,313,8.0,14.0,77,0.00,,,0.00,151.000000,,2013-06-28 14:44:00,
2013-06-28 09:53:00,69.0,61.0,-100.00,NW,313,8.0,14.0,77,0.00,,,0.00,151.000000,,2013-06-28 14:53:00,
2013-06-28 10:02:00,69.0,61.0,-100.00,NW,313,8.0,14.0,77,0.00,,,0.00,151.000000,,2013-06-28 15:02:00,
2013-06-28 10:34:00,68.0,61.0,-100.00,NW,319,8.0,17.0,77,0.00,,,0.00,140.000000,,2013-06-28 15:34:00,
2013-06-28 10:43:00,68.0,61.0,-100.00,NW,319,8.0,17.0,77,0.00,,,0.00,140.000000,,2013-06-28 15:43:00,
2013-06-28 10:52:00,68.0,61.0,-100.00,NW,319,8.0,17.0,77,0.00,,,0.00,140.000000,,2013-06-28 15:52:00,
2013-06-28 11:01:00,68.0,61.0,-100.00,NW,319,8.0,17.0,77,0.00,,,0.00,140.000000,,2013-06-28 16:01:00,
2013-06-28 11:53:00,69.0,62.0,-100.00,NW,312,8.0,16.0,78,0.00,,,0.00,178.000000,,2013-06-28 16:53:00,
2013-06-28 12:02:00,69.0,62.0,-100.00,NW,312,8.0,16.0,78,0.00,,,0.00,178.000000,,2013-06-28 17:02:00,
2013-06-28 12:33:00,70.0,62.0,-100.00,NW,323,11.0,24.0,75,0.00,,,0.00,387.000000,,2013-06-28 17:33:00,
2013-06-28 12:44:00,70.0,62.0,-100.00,NW,323,11.0,24.0,75,0.00,,,0.00,387.000000,,2013-06-28 17:44:00,
2013-06-28 12:52:00,70.0,62.0,-100.00,NW,323,11.0,24.0,75,0.00,,,0.00,387.000000,,2013-06-28 17:52:00,
2013-06-28 13:02:00,70.0,62.0,-100.00,NW,323,11.0,24.0,75,0.00,,,0.00,387.000000,,2013-06-28 18:02:00,
2013-06-28 13:33:00,74.0,67.0,-100.00,NNW,337,8.0,18.0,78,0.01,,,0.01,522.000000,,2013-06-28 18:33:00,
2013-06-28 13:43:00,74.0,67.0,-100.00,NNW,337,8.0,18.0,78,0.01,,,0.01,522.000000,,2013-06-28 18:43:00,
2013-06-28 13:52:00,74.0,67.0,-100.00,NNW,337,8.0,18.0,78,0.01,,,0.01,522.000000,,2013-06-28 18:52:00,
2013-06-28 14:01:00,74.0,67.0,-100.00,NNW,337,8.0,18.0,78,0.01,,,0.01,522.000000,,2013-06-28 19:01:00,
2013-06-28 14:33:00,73.0,56.0,-100.00,North,357,10.0,21.0,55,0.00,,,0.01,619.000000,,2013-06-28 19:33:00,
2013-06-28 14:43:00,73.0,56.0,-100.00,North,357,10.0,21.0,55,0.00,,,0.01,619.000000,,2013-06-28 19:43:00,
2013-06-28 14:53:00,73.0,56.0,-100.00,North,357,10.0,21.0,55,0.00,,,0.01,619.000000,,2013-06-28 19:53:00,
2013-06-28 15:02:00,73.0,56.0,-100.00,North,357,10.0,21.0,55,0.00,,,0.01,619.000000,,2013-06-28 20:02:00,
2013-06-28 15:33:00,74.0,63.0,-100.00,NNW,330,8.0,20.0,68,0.01,,,0.02,521.000000,,2013-06-28 20:33:00,
2013-06-28 15:43:00,74.0,63.0,-100.00,NNW,330,8.0,20.0,68,0.01,,,0.02,521.000000,,2013-06-28 20:43:00,
2013-06-28 15:52:00,74.0,63.0,-100.00,NNW,330,8.0,20.0,68,0.01,,,0.02,521.000000,,2013-06-28 20:52:00,
2013-06-28 16:02:00,74.0,63.0,-100.00,NNW,330,8.0,20.0,68,0.01,,,0.02,521.000000,,2013-06-28 21:02:00,
2013-06-28 16:34:00,73.0,63.0,-100.00,NW,326,8.0,18.0,72,0.00,,,0.02,353.000000,,2013-06-28 21:34:00,
2013-06-28 16:43:00,73.0,63.0,-100.00,NW,326,8.0,18.0,72,0.00,,,0.02,353.000000,,2013-06-28 21:43:00,
2013-06-28 16:53:00,73.0,63.0,-100.00,NW,326,8.0,18.0,72,0.00,,,0.02,353.000000,,2013-06-28 21:53:00,
2013-06-28 17:01:00,73.0,63.0,-100.00,NW,326,8.0,18.0,72,0.00,,,0.02,353.000000,,2013-06-28 22:01:00,
2013-06-28 17:34:00,71.0,63.0,-100.00,NNW,328,6.0,19.0,75,0.00,,,0.02,436.000000,,2013-06-28 22:34:00,
2013-06-28 17:43:00,71.0,63.0,-100.00,NNW,328,6.0,19.0,75,0.00,,,0.02,436.000000,,2013-06-28 22:43:00,
2013-06-28 17:52:00,71.0,63.0,-100.00,NNW,328,6.0,19.0,75,0.00,,,0.02,436.000000,,2013-06-28 22:52:00,
2013-06-28 18:02:00,71.0,63.0,-100.00,NNW,328,6.0,19.0,75,0.00,,,0.02,436.000000,,2013-06-28 23:02:00,
2013-06-28 18:34:00,75.0,65.0,-100.00,NNW,344,8.0,16.0,71,0.00,,,0.02,291.000000,,2013-06-28 23:34:00,
2013-06-28 18:43:00,75.0,65.0,-100.00,NNW,344,8.0,16.0,71,0.00,,,0.02,291.000000,,2013-06-28 23:43:00,
2013-06-28 18:53:00,75.0,65.0,-100.00,NNW,344,8.0,16.0,71,0.00,,,0.02,291.000000,,2013-06-28 23:53:00,
2013-06-28 19:02:00,75.0,65.0,-100.00,NNW,344,8.0,16.0,71,0.00,,,0.02,291.000000,,2013-06-29 00:02:00,
2013-06-28 19:33:00,71.0,62.0,-100.00,NNW,345,5.0,19.0,72,0.05,,,0.07,247.000000,,2013-06-29 00:33:00,
2013-06-28 19:42:00,71.0,62.0,-100.00,NNW,345,5.0,19.0,72,0.05,,,0.07,247.000000,,2013-06-29 00:42:00,
2013-06-28 19:52:00,71.0,62.0,-100.00,NNW,345,5.0,19.0,72,0.05,,,0.07,247.000000,,2013-06-29 00:52:00,
2013-06-28 20:01:00,71.0,62.0,-100.00,NNW,345,5.0,19.0,72,0.05,,,0.07,247.000000,,2013-06-29 01:01:00,
2013-06-28 20:32:00,67.0,63.0,-100.00,North,352,8.0,14.0,86,0.00,,,0.07,51.000000,,2013-06-29 01:32:00,
2013-06-28 20:42:00,67.0,63.0,-100.00,North,352,8.0,14.0,86,0.00,,,0.07,51.000000,,2013-06-29 01:42:00,
2013-06-28 20:52:00,67.0,63.0,-100.00,North,352,8.0,14.0,86,0.00,,,0.07,51.000000,,2013-06-29 01:52:00,
2013-06-28 21:01:00,67.0,63.0,-100.00,North,352,8.0,14.0,86,0.00,,,0.07,51.000000,,2013-06-29 02:01:00,
2013-06-28 21:31:00,65.0,63.0,-100.00,NW,322,4.0,10.0,93,0.03,,,0.10,9.000000,,2013-06-29 02:31:00,
2013-06-28 21:41:00,65.0,63.0,-100.00,NW,322,4.0,10.0,93,0.03,,,0.10,9.000000,,2013-06-29 02:41:00,
2013-06-28 21:51:00,65.0,63.0,-100.00,NW,322,4.0,10.0,93,0.03,,,0.10,9.000000,,2013-06-29 02:51:00,
2013-06-28 22:01:00,65.0,63.0,-100.00,NW,322,4.0,10.0,93,0.03,,,0.10,9.000000,,2013-06-29 03:01:00,
2013-06-28 22:32:00,65.0,64.0,-100.00,NNW,330,3.0,7.0,96,0.00,,,0.10,0.000000,,2013-06-29 03:32:00,
2013-06-28 22:41:00,65.0,64.0,-100.00,NNW,330,3.0,7.0,96,0.00,,,0.10,0.000000,,2013-06-29 03:41:00,
2013-06-28 22:51:00,65.0,64.0,-100.00,NNW,330,3.0,7.0,96,0.00,,,0.10,0.000000,,2013-06-29 03:51:00,
2013-06-28 23:01:00,65.0,64.0,-100.00,NNW,330,3.0,7.0,96,0.00,,,0.10,0.000000,,2013-06-29 04:01:00,
2013-06-28 23:32:00,64.0,63.0,-100.00,NNW,348,3.0,7.0,96,0.01,,,0.11,0.000000,,2013-06-29 04:32:00,
2013-06-28 23:41:00,64.0,63.0,-100.00,NNW,348,3.0,7.0,96,0.01,,,0.11,0.000000,,2013-06-29 04:41:00,
2013-06-28 23:51:00,64.0,63.0,-100.00,NNW,348,3.0,7.0,96,0.01,,,0.11,0.000000,,2013-06-29 04:51:00,